createdAt,value
2023-01-11T17:32:27.268Z,9.30
2023-01-11T17:35:18.716Z,9.30
2023-01-11T17:37:49.967Z,9.30
2023-01-11T17:40:29.073Z,9.30
2023-01-11T17:43:42.525Z,9.30
2023-01-11T17:46:26.989Z,9.20
2023-01-11T17:49:41.055Z,9.30
2023-01-11T17:52:38.977Z,9.30
2023-01-11T17:55:18.235Z,9.30
2023-01-11T17:58:10.247Z,9.20
2023-01-11T18:06:00.790Z,9.30
2023-01-11T18:08:39.698Z,9.30
2023-01-11T18:16:27.600Z,9.20
2023-01-11T18:19:19.580Z,9.10
2023-01-11T18:36:01.827Z,8.80
2023-01-11T18:54:37.099Z,8.50
2023-01-11T20:48:13.672Z,6.80
2023-01-11T20:50:43.775Z,6.80
2023-01-11T20:53:15.030Z,6.80
2023-01-11T21:16:09.405Z,6.90
2023-01-11T21:25:42.151Z,7.00
2023-01-11T21:33:06.575Z,7.10
2023-01-11T22:10:28.389Z,6.50
2023-01-11T22:14:00.509Z,6.30
2023-01-11T22:31:58.991Z,6.20
2023-01-11T22:34:27.288Z,6.20
2023-01-11T22:36:56.095Z,6.20
2023-01-11T22:39:27.003Z,6.40
2023-01-11T22:42:01.121Z,6.50
2023-01-11T22:44:29.345Z,6.60
2023-01-11T22:47:01.171Z,6.70
2023-01-11T22:49:31.008Z,6.90
2023-01-11T22:51:59.218Z,7.00
2023-01-11T22:54:34.491Z,7.00
2023-01-11T22:57:19.299Z,7.00
2023-01-11T23:02:39.976Z,7.10
2023-01-11T23:05:11.903Z,7.10
2023-01-11T23:07:42.030Z,7.10
2023-01-11T23:10:33.186Z,7.10
2023-01-11T23:13:22.562Z,7.10
2023-01-11T23:15:54.025Z,7.10
2023-01-11T23:18:26.725Z,7.10
2023-01-11T23:20:55.267Z,7.10
2023-01-11T23:23:23.443Z,7.10
2023-01-11T23:25:55.793Z,7.10
2023-01-11T23:28:24.133Z,7.10
2023-01-11T23:30:55.113Z,7.10
2023-01-11T23:33:24.812Z,7.00
2023-01-11T23:35:57.301Z,7.00
2023-01-11T23:38:25.795Z,7.10
2023-01-11T23:41:11.436Z,7.00
2023-01-11T23:43:39.846Z,7.00
2023-01-11T23:46:21.969Z,6.90
2023-01-11T23:48:51.793Z,6.80
2023-01-11T23:51:19.966Z,6.80
2023-01-11T23:53:48.335Z,6.70
2023-01-11T23:56:17.175Z,6.60
2023-01-11T23:58:45.453Z,6.50
